createdAt,value
2017-10-20T00:00:17.837Z,17.66
2017-10-20T00:00:58.393Z,17.74
2017-10-20T00:01:38.961Z,17.63
2017-10-20T00:02:19.449Z,17.64
2017-10-20T00:03:00.041Z,17.55
2017-10-20T00:03:40.591Z,17.59
2017-10-20T00:04:21.208Z,17.56
2017-10-20T00:05:01.759Z,17.7
2017-10-20T00:05:42.356Z,17.66
2017-10-20T00:06:22.891Z,17.71
2017-10-20T00:07:03.491Z,17.71
2017-10-20T00:07:44.003Z,17.63
2017-10-20T00:08:24.521Z,17.71
2017-10-20T00:09:05.113Z,17.74
2017-10-20T00:09:45.744Z,17.78
2017-10-20T00:10:26.335Z,17.79
2017-10-20T00:11:06.896Z,17.74
2017-10-20T00:11:47.416Z,17.77
2017-10-20T00:12:27.970Z,17.77
2017-10-20T00:13:08.529Z,17.75
2017-10-20T00:13:49.079Z,17.75
2017-10-20T00:14:29.667Z,17.74
2017-10-20T00:15:10.163Z,17.71
2017-10-20T00:15:50.697Z,17.78
2017-10-20T00:16:31.318Z,17.81
2017-10-20T00:17:11.880Z,17.86
2017-10-20T00:17:52.623Z,17.84
2017-10-20T00:18:33.028Z,17.87
2017-10-20T00:19:13.542Z,17.71
2017-10-20T00:19:54.061Z,17.74
2017-10-20T00:20:34.639Z,17.71
2017-10-20T00:21:15.139Z,17.74
2017-10-20T00:21:55.715Z,17.79
2017-10-20T00:22:36.223Z,17.87
2017-10-20T00:23:16.777Z,17.86
2017-10-20T00:23:57.323Z,17.87
2017-10-20T00:24:37.824Z,17.86
2017-10-20T00:25:18.331Z,17.84
2017-10-20T00:25:58.850Z,17.89
2017-10-20T00:26:39.390Z,17.95
2017-10-20T00:27:19.925Z,17.82
2017-10-20T00:28:00.481Z,17.9
2017-10-20T00:28:41.026Z,17.93
2017-10-20T00:29:21.562Z,17.89
2017-10-20T00:30:02.134Z,17.92
2017-10-20T00:30:42.703Z,18
2017-10-20T00:31:23.264Z,17.87
2017-10-20T00:32:03.809Z,17.99
2017-10-20T00:32:44.342Z,17.97
2017-10-20T00:33:24.907Z,17.92
2017-10-20T00:34:05.439Z,17.89
2017-10-20T00:34:46.979Z,17.89
2017-10-20T00:35:27.414Z,17.86
2017-10-20T00:36:07.929Z,17.86
2017-10-20T00:36:48.500Z,17.9
2017-10-20T00:37:29.036Z,17.92
2017-10-20T00:38:09.588Z,17.74
2017-10-20T00:38:50.150Z,17.74
2017-10-20T00:39:30.693Z,17.81
2017-10-20T00:40:11.231Z,17.75
2017-10-20T00:40:51.853Z,17.77
2017-10-20T00:41:32.410Z,17.75
2017-10-20T00:42:12.998Z,17.77
2017-10-20T00:42:53.550Z,17.75
2017-10-20T00:43:34.065Z,17.87
2017-10-20T00:44:14.602Z,17.89
2017-10-20T00:44:55.164Z,17.9
2017-10-20T00:45:35.751Z,17.82
2017-10-20T00:46:16.209Z,17.86
2017-10-20T00:46:56.773Z,17.87
2017-10-20T00:47:37.329Z,17.84
2017-10-20T00:48:17.916Z,17.75
2017-10-20T00:48:58.418Z,17.89
2017-10-20T00:49:38.970Z,17.87
2017-10-20T00:50:19.540Z,17.71
2017-10-20T00:51:00.051Z,17.71
2017-10-20T00:51:40.552Z,17.71
2017-10-20T00:52:21.132Z,17.75
2017-10-20T00:53:01.623Z,17.72
2017-10-20T00:53:42.180Z,17.75
2017-10-20T00:54:22.714Z,17.81
2017-10-20T00:55:03.256Z,17.74
2017-10-20T00:55:43.765Z,17.75
2017-10-20T00:56:24.294Z,17.75
2017-10-20T00:57:04.855Z,17.78
2017-10-20T00:57:45.384Z,17.74
2017-10-20T00:58:25.988Z,17.74
2017-10-20T00:59:06.514Z,17.82
2017-10-20T00:59:47.084Z,17.79
2017-10-20T01:00:27.595Z,17.74
2017-10-20T01:01:08.108Z,17.86
2017-10-20T01:01:48.680Z,17.81
2017-10-20T01:02:29.204Z,17.81
2017-10-20T01:03:09.744Z,17.77
2017-10-20T01:03:50.275Z,17.79
2017-10-20T01:04:30.859Z,17.86
2017-10-20T01:05:11.431Z,17.81
2017-10-20T01:05:51.993Z,17.74
2017-10-20T01:06:32.579Z,17.71
2017-10-20T01:07:13.083Z,17.84
2017-10-20T01:07:53.575Z,17.75
2017-10-20T01:08:34.123Z,17.74
2017-10-20T01:09:14.730Z,17.79
2017-10-20T01:09:55.268Z,17.71
2017-10-20T01:10:35.786Z,17.75
2017-10-20T01:11:16.343Z,17.75
2017-10-20T01:11:56.879Z,17.78
2017-10-20T01:12:37.475Z,17.66
2017-10-20T01:13:17.936Z,17.71
2017-10-20T01:13:58.485Z,17.62
2017-10-20T01:14:39.012Z,17.52
2017-10-20T01:15:19.513Z,17.55
2017-10-20T01:16:00.038Z,17.58
2017-10-20T01:16:40.638Z,17.52
2017-10-20T01:17:21.185Z,17.54
2017-10-20T01:18:01.751Z,17.46
2017-10-20T01:18:42.295Z,17.49
2017-10-20T01:19:22.857Z,17.52
2017-10-20T01:20:03.394Z,17.43
2017-10-20T01:20:43.923Z,17.37
2017-10-20T01:21:24.526Z,17.37
2017-10-20T01:22:05.049Z,17.33
2017-10-20T01:22:45.581Z,17.34
2017-10-20T01:23:26.102Z,17.23
2017-10-20T01:24:06.745Z,17.19
2017-10-20T01:24:47.411Z,17.33
2017-10-20T01:25:27.931Z,17.44
2017-10-20T01:26:08.476Z,17.4
2017-10-20T01:26:49.389Z,17.44
2017-10-20T01:27:29.992Z,17.49
2017-10-20T01:28:10.505Z,17.48
2017-10-20T01:28:51.052Z,17.44
2017-10-20T01:29:31.577Z,17.44
2017-10-20T01:30:12.800Z,17.36
2017-10-20T01:30:53.391Z,17.36
2017-10-20T01:31:33.939Z,17.36
2017-10-20T01:32:15.025Z,17.37
2017-10-20T01:32:55.590Z,17.43
2017-10-20T01:33:36.584Z,17.44
2017-10-20T01:34:17.459Z,17.37
2017-10-20T01:34:58.068Z,17.36
2017-10-20T01:35:38.598Z,17.36
2017-10-20T01:36:19.162Z,17.4
2017-10-20T01:37:03.079Z,17.34
2017-10-20T01:53:25.540Z,17.46
2017-10-20T01:54:15.872Z,17.44
2017-10-20T01:55:03.775Z,17.48
2017-10-20T01:55:51.132Z,17.46
2017-10-20T01:56:38.093Z,17.33
2017-10-20T01:57:23.670Z,17.31
2017-10-20T01:58:09.718Z,17.41
2017-10-20T01:58:58.521Z,17.22
2017-10-20T01:59:47.148Z,17.23
2017-10-20T02:00:32.942Z,17.21
2017-10-20T02:01:22.002Z,17.08
2017-10-20T02:02:06.718Z,17.16
2017-10-20T02:03:00.486Z,17.07
2017-10-20T02:03:45.630Z,17.11
2017-10-20T02:04:28.769Z,17.07
2017-10-20T02:05:09.333Z,17.16
2017-10-20T02:05:49.846Z,17.12
2017-10-20T02:06:30.338Z,17.11
2017-10-20T02:07:10.886Z,17.12
2017-10-20T02:07:51.446Z,17.11
2017-10-20T02:08:32.001Z,17.14
2017-10-20T02:09:12.552Z,17.07
2017-10-20T02:09:53.103Z,17.19
2017-10-20T02:10:33.614Z,17.18
2017-10-20T02:11:18.649Z,17.22
2017-10-20T02:12:08.269Z,17.26
2017-10-20T02:12:57.105Z,17.36
2017-10-20T02:13:42.788Z,17.34
2017-10-20T02:14:32.224Z,17.44
2017-10-20T02:15:19.903Z,17.48
2017-10-20T02:16:10.880Z,17.48
2017-10-20T02:21:49.485Z,17.54
2017-10-20T02:22:29.992Z,17.56
2017-10-20T02:23:10.546Z,17.43
2017-10-20T02:23:51.042Z,17.51
2017-10-20T02:24:31.573Z,17.46
2017-10-20T02:25:12.132Z,17.55
2017-10-20T02:25:52.585Z,17.62
2017-10-20T02:26:33.159Z,17.56
2017-10-20T02:27:13.699Z,17.59
2017-10-20T02:27:54.266Z,17.56
2017-10-20T02:28:34.831Z,17.59
2017-10-20T02:29:15.361Z,17.62
2017-10-20T02:29:55.936Z,17.7
2017-10-20T02:30:36.464Z,17.58
2017-10-20T02:31:16.981Z,17.63
2017-10-20T02:31:57.536Z,17.64
2017-10-20T02:32:38.073Z,17.66
2017-10-20T02:33:18.705Z,17.58
2017-10-20T02:33:59.264Z,17.62
2017-10-20T02:34:39.767Z,17.64
2017-10-20T02:35:20.346Z,17.66
2017-10-20T02:36:00.874Z,17.74
2017-10-20T02:36:41.395Z,17.75
2017-10-20T02:37:21.936Z,17.68
2017-10-20T02:38:02.518Z,17.77
2017-10-20T02:38:42.974Z,17.72
2017-10-20T02:39:23.558Z,17.77
2017-10-20T02:40:04.112Z,17.72
2017-10-20T02:40:44.629Z,17.75
2017-10-20T02:41:25.248Z,17.71
2017-10-20T02:42:05.767Z,17.72
2017-10-20T02:42:46.340Z,17.72
2017-10-20T02:43:26.894Z,17.7
2017-10-20T02:44:07.433Z,17.77
2017-10-20T02:44:47.963Z,17.81
2017-10-20T02:45:28.517Z,17.77
2017-10-20T02:46:09.010Z,17.79
2017-10-20T02:46:49.584Z,17.77
2017-10-20T02:47:30.174Z,17.71
2017-10-20T02:48:10.693Z,17.75
2017-10-20T02:48:51.234Z,17.74
2017-10-20T02:49:31.729Z,17.75
2017-10-20T02:50:12.238Z,17.78
2017-10-20T02:50:52.832Z,17.71
2017-10-20T02:51:33.402Z,17.62
2017-10-20T02:52:13.957Z,17.66
2017-10-20T02:52:54.467Z,17.7
2017-10-20T02:53:35.011Z,17.71
2017-10-20T02:54:15.553Z,17.66
2017-10-20T02:54:56.100Z,17.72
2017-10-20T02:55:36.637Z,17.77
2017-10-20T02:56:17.180Z,17.75
2017-10-20T02:56:57.717Z,17.66
2017-10-20T02:57:38.236Z,17.59
2017-10-20T02:58:18.784Z,17.56
2017-10-20T03:44:55.208Z,17.59
2017-10-20T03:45:40.854Z,17.56
2017-10-20T03:46:22.817Z,17.56
2017-10-20T03:47:04.679Z,17.52
2017-10-20T03:47:45.460Z,17.51
2017-10-20T03:48:27.655Z,17.58
2017-10-20T03:49:10.638Z,17.55
2017-10-20T03:49:51.650Z,17.51
2017-10-20T03:50:34.200Z,17.49
2017-10-20T03:51:15.798Z,17.34
2017-10-20T03:51:57.711Z,17.43
2017-10-20T03:52:39.044Z,17.54
2017-10-20T03:53:21.341Z,17.51
2017-10-20T03:54:05.793Z,17.52
2017-10-20T03:54:57.900Z,17.55
2017-10-20T05:06:23.169Z,17.56
2017-10-20T05:07:03.660Z,17.55
2017-10-20T05:07:44.232Z,17.51
2017-10-20T05:08:24.708Z,17.56
2017-10-20T05:09:05.298Z,17.46
2017-10-20T05:09:45.878Z,17.54
2017-10-20T05:10:26.387Z,17.46
2017-10-20T05:11:06.909Z,17.48
2017-10-20T05:11:47.475Z,17.43
2017-10-20T05:12:27.988Z,17.55
2017-10-20T05:13:08.479Z,17.51
2017-10-20T05:13:49.034Z,17.52
2017-10-20T05:14:29.621Z,17.52
2017-10-20T05:15:10.213Z,17.37
2017-10-20T05:15:50.691Z,17.56
2017-10-20T05:16:31.210Z,17.52
2017-10-20T05:17:11.770Z,17.54
2017-10-20T05:17:52.317Z,17.51
2017-10-20T05:18:32.874Z,17.58
2017-10-20T05:19:13.353Z,17.56
2017-10-20T05:19:53.971Z,17.59
2017-10-20T05:20:34.529Z,17.66
2017-10-20T05:21:15.291Z,17.66
2017-10-20T05:21:55.990Z,17.74
2017-10-20T05:22:36.652Z,17.82
2017-10-20T05:23:17.210Z,17.78
2017-10-20T05:23:58.059Z,17.93
2017-10-20T05:24:38.789Z,17.9
2017-10-20T05:25:19.263Z,17.93
2017-10-20T05:25:59.830Z,18.02
2017-10-20T05:26:40.401Z,17.96
2017-10-20T05:27:21.011Z,18.02
2017-10-20T05:28:01.614Z,17.96
2017-10-20T05:28:42.247Z,18.08
2017-10-20T05:29:22.753Z,18.08
2017-10-20T05:30:03.313Z,18.02
2017-10-20T05:30:43.817Z,18.05
2017-10-20T05:31:24.376Z,18.12
2017-10-20T05:32:05.093Z,18.11
2017-10-20T05:32:45.771Z,18.11
2017-10-20T05:33:26.312Z,18.15
2017-10-20T05:34:07.017Z,18.25
2017-10-20T05:34:47.960Z,18.23
2017-10-20T05:35:28.565Z,18.25
2017-10-20T05:36:09.513Z,18.18
2017-10-20T05:36:50.462Z,18.15
2017-10-20T05:37:31.067Z,18.05
2017-10-20T05:38:11.590Z,17.96
2017-10-20T05:38:52.149Z,18.08
2017-10-20T05:39:32.745Z,17.99
2017-10-20T05:40:13.257Z,18.02
2017-10-20T05:40:53.900Z,18.02
2017-10-20T05:41:34.384Z,18.03
2017-10-20T05:42:14.977Z,18.11
2017-10-20T05:42:55.602Z,18.03
2017-10-20T05:43:36.107Z,18.1
2017-10-20T05:44:16.744Z,18.14
2017-10-20T05:44:57.240Z,18.17
2017-10-20T05:45:37.750Z,18.25
2017-10-20T05:46:18.291Z,18.27
2017-10-20T05:46:58.854Z,18.33
2017-10-20T05:47:40.317Z,18.26
2017-10-20T05:48:22.011Z,18.3
2017-10-20T05:49:03.275Z,18.2
2017-10-20T05:49:46.812Z,18.2
2017-10-20T05:50:27.451Z,18.17
2017-10-20T05:51:07.888Z,18.27
2017-10-20T05:51:48.561Z,18.3
2017-10-20T05:52:29.177Z,18.26
2017-10-20T05:53:09.590Z,18.33
2017-10-20T05:53:50.239Z,18.36
2017-10-20T05:54:31.789Z,18.45
2017-10-20T05:55:12.345Z,18.35
2017-10-20T05:55:52.903Z,18.32
2017-10-20T05:56:33.414Z,18.37
2017-10-20T05:57:13.990Z,18.42
2017-10-20T05:57:54.617Z,18.5
2017-10-20T05:58:35.246Z,18.5
2017-10-20T05:59:16.580Z,18.41
2017-10-20T05:59:57.533Z,18.58
2017-10-20T06:00:38.102Z,18.58
2017-10-20T06:01:18.936Z,18.62
2017-10-20T06:01:59.487Z,18.72
2017-10-20T06:02:40.018Z,18.72
2017-10-20T06:03:20.564Z,18.67
2017-10-20T06:04:01.066Z,18.75
2017-10-20T06:04:41.825Z,18.76
2017-10-20T06:05:22.418Z,18.76
2017-10-20T06:06:02.972Z,18.76
2017-10-20T06:06:43.517Z,18.72
2017-10-20T06:07:24.035Z,18.78
2017-10-20T06:08:04.603Z,18.76
2017-10-20T06:08:45.142Z,18.78
2017-10-20T06:09:26.142Z,18.7
2017-10-20T06:10:06.722Z,18.88
2017-10-20T06:10:47.286Z,18.84
2017-10-20T06:11:27.894Z,18.87
2017-10-20T06:12:08.575Z,18.85
2017-10-20T06:12:49.954Z,18.82
2017-10-20T06:13:30.585Z,18.81
2017-10-20T06:14:11.156Z,18.9
2017-10-20T06:14:51.747Z,18.84
2017-10-20T06:15:32.271Z,18.82
2017-10-20T06:16:12.862Z,18.81
2017-10-20T06:16:53.422Z,18.88
2017-10-20T06:17:33.937Z,18.8
2017-10-20T06:18:14.532Z,18.76
2017-10-20T06:18:55.113Z,18.87
2017-10-20T06:19:35.709Z,18.8
2017-10-20T06:20:16.247Z,18.72
2017-10-20T06:20:58.999Z,18.7
2017-10-20T06:21:39.721Z,18.87
2017-10-20T06:22:20.263Z,18.82
2017-10-20T06:23:00.796Z,18.73
2017-10-20T06:23:41.368Z,18.76
2017-10-20T06:24:22.410Z,18.88
2017-10-20T06:25:02.951Z,18.92
2017-10-20T06:25:43.697Z,18.95
2017-10-20T06:26:24.293Z,18.91
2017-10-20T06:27:04.829Z,18.81
2017-10-20T06:27:46.158Z,18.73
2017-10-20T06:28:26.780Z,18.72
2017-10-20T06:29:07.303Z,18.76
2017-10-20T06:29:47.827Z,18.66
2017-10-20T06:30:28.365Z,18.58
2017-10-20T06:31:08.874Z,18.66
2017-10-20T06:31:49.414Z,18.6
2017-10-20T06:32:29.961Z,18.6
2017-10-20T06:33:10.499Z,18.45
2017-10-20T06:33:51.120Z,18.55
2017-10-20T06:34:32.156Z,18.44
2017-10-20T06:35:12.763Z,18.44
2017-10-20T06:35:53.213Z,18.45
2017-10-20T06:36:33.760Z,18.48
2017-10-20T06:37:14.315Z,18.55
2017-10-20T06:37:54.927Z,18.55
2017-10-20T06:38:35.934Z,18.55
2017-10-20T06:39:16.457Z,18.63
2017-10-20T06:39:57.025Z,18.48
2017-10-20T06:40:37.572Z,18.52
2017-10-20T06:41:18.120Z,18.44
2017-10-20T06:41:58.651Z,18.44
2017-10-20T06:42:39.132Z,18.47
2017-10-20T06:43:19.760Z,18.44
2017-10-20T06:44:00.447Z,18.44
2017-10-20T06:44:40.960Z,18.39
2017-10-20T06:45:22.220Z,18.51
2017-10-20T06:46:03.402Z,18.42
2017-10-20T06:46:44.202Z,18.45
2017-10-20T06:47:25.084Z,18.47
2017-10-20T06:48:05.901Z,18.44
2017-10-20T06:48:46.660Z,18.48
2017-10-20T06:49:27.711Z,18.54
2017-10-20T06:50:08.407Z,18.54
2017-10-20T06:50:49.433Z,18.57
2017-10-20T06:51:29.981Z,18.62
2017-10-20T06:52:10.476Z,18.58
2017-10-20T06:52:51.068Z,18.7
2017-10-20T06:53:31.672Z,18.78
2017-10-20T06:54:12.145Z,18.73
2017-10-20T06:54:52.698Z,18.76
2017-10-20T06:55:33.382Z,18.9
2017-10-20T06:56:13.940Z,18.92
2017-10-20T06:56:54.447Z,19.04
2017-10-20T06:57:35.046Z,18.85
2017-10-20T06:58:15.568Z,18.69
2017-10-20T06:58:56.105Z,18.72
2017-10-20T06:59:36.661Z,18.58
2017-10-20T07:00:17.236Z,18.62
2017-10-20T07:00:57.767Z,18.67
2017-10-20T07:01:38.323Z,18.7
2017-10-20T07:02:18.838Z,18.7
2017-10-20T07:02:59.422Z,18.75
2017-10-20T07:03:39.973Z,18.78
2017-10-20T07:04:20.463Z,18.75
2017-10-20T07:05:01.007Z,18.82
2017-10-20T07:05:41.629Z,18.57
2017-10-20T07:06:22.229Z,18.57
2017-10-20T07:07:02.734Z,18.58
2017-10-20T07:07:43.363Z,18.58
2017-10-20T07:08:24.016Z,18.87
2017-10-20T07:09:04.498Z,18.9
2017-10-20T07:09:45.061Z,19
2017-10-20T07:10:25.627Z,19.02
2017-10-20T07:11:06.203Z,19.04
2017-10-20T07:11:46.777Z,19.1
2017-10-20T07:12:27.526Z,19.14
2017-10-20T07:13:08.115Z,19.28
2017-10-20T07:13:48.687Z,19.28
2017-10-20T07:14:29.202Z,19.23
2017-10-20T07:15:09.724Z,19.22
2017-10-20T07:15:50.220Z,19.14
2017-10-20T07:16:30.769Z,19.21
2017-10-20T07:17:11.501Z,19.16
2017-10-20T07:17:52.063Z,19.16
2017-10-20T07:18:32.610Z,19.16
2017-10-20T07:19:13.260Z,19.16
2017-10-20T07:19:54.232Z,19.19
2017-10-20T07:20:35.412Z,19.14
2017-10-20T07:21:16.164Z,19.19
2017-10-20T07:21:56.862Z,19.18
2017-10-20T07:22:37.379Z,19.08
2017-10-20T07:23:18.010Z,19.19
2017-10-20T07:23:58.682Z,19.14
2017-10-20T07:29:50.557Z,19.28
2017-10-20T07:31:31.184Z,19.06
2017-10-20T07:37:49.520Z,19.16
2017-10-20T07:38:32.657Z,19.23
2017-10-20T07:39:13.877Z,19.26
2017-10-20T07:39:56.197Z,19.36
2017-10-20T07:40:40.831Z,19.32
2017-10-20T07:41:23.676Z,19.22
2017-10-20T07:42:12.465Z,19.28
2017-10-20T07:42:55.243Z,19.21
2017-10-20T07:43:40.680Z,19.22
2017-10-20T07:50:14.675Z,19.14
2017-10-20T07:50:58.082Z,19.28
2017-10-20T07:54:35.374Z,19.22
2017-10-20T07:55:15.905Z,19.32
2017-10-20T07:55:56.679Z,19.25
2017-10-20T07:56:37.238Z,19.39
2017-10-20T07:57:17.818Z,19.4
2017-10-20T07:57:58.305Z,19.48
2017-10-20T07:58:38.831Z,19.4
2017-10-20T07:59:19.420Z,19.48
2017-10-20T07:59:59.983Z,19.54
2017-10-20T08:00:40.517Z,19.48
2017-10-20T08:01:21.294Z,19.41
2017-10-20T08:02:01.798Z,19.51
2017-10-20T08:02:42.360Z,19.4
2017-10-20T08:03:22.935Z,19.51
2017-10-20T08:04:03.467Z,19.44
2017-10-20T08:04:44.002Z,19.54
2017-10-20T08:05:24.636Z,19.4
2017-10-20T08:06:05.077Z,19.48
2017-10-20T08:06:45.669Z,19.51
2017-10-20T08:07:26.234Z,19.51
2017-10-20T08:08:06.682Z,19.63
2017-10-20T08:08:47.307Z,19.47
2017-10-20T08:09:29.260Z,19.44
2017-10-20T08:10:09.715Z,19.41
2017-10-20T08:10:50.330Z,19.47
2017-10-20T08:11:30.839Z,19.44
2017-10-20T08:12:11.388Z,19.43
2017-10-20T08:12:51.994Z,19.55
2017-10-20T08:13:32.449Z,19.47
2017-10-20T08:14:13.016Z,19.55
2017-10-20T08:14:53.502Z,19.54
2017-10-20T08:15:33.992Z,19.54
2017-10-20T08:16:14.561Z,19.48
2017-10-20T08:16:55.137Z,19.56
2017-10-20T08:17:35.734Z,19.65
2017-10-20T08:18:16.232Z,19.56
2017-10-20T08:18:56.789Z,19.51
2017-10-20T08:19:37.623Z,19.56
2017-10-20T08:20:18.247Z,19.51
2017-10-20T08:20:58.845Z,19.55
2017-10-20T08:21:39.987Z,19.41
2017-10-20T08:22:20.740Z,19.51
2017-10-20T08:23:02.010Z,19.62
2017-10-20T08:23:43.278Z,19.58
2017-10-20T08:24:24.584Z,19.56
2017-10-20T08:25:05.271Z,19.66
2017-10-20T08:25:46.080Z,19.58
2017-10-20T08:26:29.984Z,19.62
2017-10-20T08:27:10.470Z,19.65
2017-10-20T08:27:51.339Z,19.68
2017-10-20T08:28:32.691Z,19.63
2017-10-20T08:29:13.187Z,19.58
2017-10-20T08:29:54.772Z,19.58
2017-10-20T08:30:44.501Z,19.56
2017-10-20T08:31:36.566Z,19.54
2017-10-20T08:40:49.129Z,19.74
2017-10-20T08:41:29.679Z,19.68
2017-10-20T08:42:10.230Z,19.71
2017-10-20T08:42:50.743Z,19.69
2017-10-20T08:43:31.425Z,19.69
2017-10-20T08:44:11.909Z,19.68
2017-10-20T08:44:52.503Z,19.83
2017-10-20T08:45:33.095Z,19.77
2017-10-20T08:46:13.637Z,19.84
2017-10-20T08:46:54.199Z,19.92
2017-10-20T08:47:34.733Z,19.83
2017-10-20T08:48:15.291Z,19.88
2017-10-20T08:48:55.830Z,19.86
2017-10-20T08:49:36.344Z,19.84
2017-10-20T08:50:17.058Z,19.84
2017-10-20T08:50:57.628Z,19.71
2017-10-20T08:51:38.744Z,19.71
2017-10-20T08:52:19.297Z,19.74
2017-10-20T08:52:59.915Z,19.71
2017-10-20T08:53:43.472Z,19.74
2017-10-20T08:54:28.210Z,19.69
2017-10-20T08:55:10.628Z,19.74
2017-10-20T08:55:51.281Z,19.76
2017-10-20T08:56:31.788Z,19.77
2017-10-20T08:57:12.544Z,19.74
2017-10-20T08:57:53.271Z,19.76
2017-10-20T08:58:33.830Z,19.73
2017-10-20T08:59:14.390Z,19.66
2017-10-20T08:59:54.940Z,19.76
2017-10-20T09:00:35.456Z,19.62
2017-10-20T09:01:15.995Z,19.62
2017-10-20T09:01:56.526Z,19.61
2017-10-20T09:02:37.087Z,19.73
2017-10-20T09:03:17.676Z,19.77
2017-10-20T09:03:58.320Z,19.83
2017-10-20T09:04:38.932Z,19.91
2017-10-20T09:05:19.471Z,19.92
2017-10-20T09:05:59.967Z,19.91
2017-10-20T09:06:40.545Z,19.95
2017-10-20T09:07:21.096Z,19.96
2017-10-20T09:08:01.620Z,19.94
2017-10-20T09:08:42.140Z,19.95
2017-10-20T09:09:22.758Z,19.96
2017-10-20T09:10:03.288Z,19.92
2017-10-20T09:10:43.804Z,19.96
2017-10-20T09:11:25.863Z,20.06
2017-10-20T09:12:13.950Z,20.05
2017-10-20T09:13:03.235Z,20.2
2017-10-20T09:16:20.919Z,20.17
2017-10-20T09:17:06.647Z,20.29
2017-10-20T09:17:48.276Z,20.36
2017-10-20T09:18:29.486Z,20.32
2017-10-20T09:19:14.822Z,20.33
2017-10-20T09:19:55.994Z,20.31
2017-10-20T09:21:55.326Z,20.5
2017-10-20T09:22:37.156Z,20.35
2017-10-20T09:23:18.165Z,20.33
2017-10-20T09:23:58.655Z,20.35
2017-10-20T09:24:43.922Z,20.2
2017-10-20T09:25:25.053Z,20.26
2017-10-20T09:26:05.817Z,20.31
2017-10-20T09:26:48.871Z,20.36
2017-10-20T09:27:29.393Z,20.39
2017-10-20T09:28:09.862Z,20.16
2017-10-20T09:28:50.644Z,20.33
2017-10-20T09:29:31.095Z,20.42
2017-10-20T09:30:11.719Z,20.42
2017-10-20T09:30:53.232Z,20.5
2017-10-20T09:31:33.783Z,20.47
2017-10-20T09:32:14.359Z,20.5
2017-10-20T09:32:54.940Z,20.57
2017-10-20T09:33:36.171Z,20.58
2017-10-20T09:34:16.767Z,20.66
2017-10-20T09:34:57.530Z,20.72
2017-10-20T09:35:38.181Z,20.79
2017-10-20T09:36:18.637Z,20.7
2017-10-20T09:36:59.348Z,20.74
2017-10-20T09:37:40.984Z,20.76
2017-10-20T09:38:21.552Z,20.73
2017-10-20T09:39:02.071Z,20.66
2017-10-20T09:39:42.629Z,20.69
2017-10-20T09:40:23.306Z,20.59
2017-10-20T09:41:03.856Z,20.5
2017-10-20T09:41:44.741Z,20.33
2017-10-20T09:42:25.289Z,20.16
2017-10-20T09:43:06.018Z,20.03
2017-10-20T09:43:47.522Z,19.94
2017-10-20T09:44:31.259Z,19.92
2017-10-20T09:45:11.861Z,19.91
2017-10-20T09:45:52.473Z,19.95
2017-10-20T09:46:33.080Z,19.98
2017-10-20T09:47:15.188Z,19.94
2017-10-20T09:47:55.817Z,20.05
2017-10-20T09:48:39.057Z,19.94
2017-10-20T09:49:20.474Z,19.91
2017-10-20T09:50:05.003Z,19.88
2017-10-20T09:50:45.573Z,19.94
2017-10-20T09:51:26.215Z,19.8
2017-10-20T09:52:07.950Z,19.91
2017-10-20T09:52:49.135Z,19.94
2017-10-20T09:56:11.658Z,19.92
2017-10-20T09:56:52.471Z,19.88
2017-10-20T09:57:33.021Z,19.94
2017-10-20T09:59:48.259Z,20.17
2017-10-20T10:00:28.990Z,20.17
2017-10-20T10:01:14.361Z,20.18
2017-10-20T10:01:58.922Z,20.02
2017-10-20T10:02:40.760Z,20.24
2017-10-20T10:03:21.837Z,20.13
2017-10-20T10:04:10.618Z,20.2
2017-10-20T10:04:51.213Z,20.24
2017-10-20T10:05:31.850Z,20.28
2017-10-20T10:06:12.690Z,20.24
2017-10-20T10:06:55.313Z,20.28
2017-10-20T10:07:36.074Z,20.31
2017-10-20T10:08:16.630Z,20.21
2017-10-20T10:08:57.449Z,20.18
2017-10-20T10:09:38.030Z,20.21
2017-10-20T10:10:18.597Z,20.2
2017-10-20T10:10:59.161Z,20.16
2017-10-20T10:11:39.771Z,20.14
2017-10-20T10:12:20.333Z,20.1
2017-10-20T10:13:00.987Z,20.17
2017-10-20T10:13:41.711Z,20.08
2017-10-20T10:14:22.866Z,20.02
2017-10-20T10:15:03.368Z,20.14
2017-10-20T10:15:43.926Z,20.1
2017-10-20T10:16:24.480Z,20.03
2017-10-20T10:17:05.049Z,20.11
2017-10-20T10:17:45.685Z,20.14
2017-10-20T10:18:26.205Z,20.21
2017-10-20T10:19:06.738Z,20.2
2017-10-20T10:19:47.249Z,20.13
2017-10-20T10:20:28.018Z,20.17
2017-10-20T10:21:08.481Z,20.2
2017-10-20T10:21:49.535Z,20.13
2017-10-20T10:22:30.176Z,20.24
2017-10-20T10:23:10.866Z,20.17
2017-10-20T10:23:51.416Z,20.26
2017-10-20T10:24:32.017Z,20.23
2017-10-20T10:25:12.657Z,20.23
2017-10-20T10:25:53.220Z,20.31
2017-10-20T10:26:33.840Z,20.33
2017-10-20T10:27:14.413Z,20.32
2017-10-20T10:27:54.976Z,20.39
2017-10-20T10:28:35.518Z,20.5
2017-10-20T10:29:16.150Z,20.5
2017-10-20T10:29:56.672Z,20.38
2017-10-20T10:30:37.248Z,20.35
2017-10-20T10:31:17.854Z,20.29
2017-10-20T10:31:58.440Z,20.18
2017-10-20T10:32:39.043Z,20.26
2017-10-20T10:33:19.637Z,20.18
2017-10-20T10:34:00.205Z,20.24
2017-10-20T10:34:41.058Z,20.18
2017-10-20T10:35:22.126Z,20.29
2017-10-20T10:36:02.760Z,20.2
2017-10-20T10:36:46.663Z,20.17
2017-10-20T10:37:27.099Z,20.26
2017-10-20T10:38:07.674Z,20.17
2017-10-20T10:38:48.280Z,20.26
2017-10-20T10:39:28.893Z,20.24
2017-10-20T10:40:09.468Z,20.26
2017-10-20T10:40:50.611Z,20.29
2017-10-20T10:41:31.240Z,20.28
2017-10-20T10:42:11.830Z,20.23
2017-10-20T10:42:52.402Z,20.39
2017-10-20T10:43:32.957Z,20.5
2017-10-20T10:44:13.533Z,20.42
2017-10-20T10:44:54.244Z,20.47
2017-10-20T10:45:34.710Z,20.48
2017-10-20T10:46:15.345Z,20.48
2017-10-20T10:46:55.947Z,20.47
2017-10-20T10:47:36.497Z,20.47
2017-10-20T10:48:17.119Z,20.52
2017-10-20T10:48:57.730Z,20.54
2017-10-20T10:49:38.344Z,20.48
2017-10-20T10:50:18.920Z,20.36
2017-10-20T10:50:59.470Z,20.41
2017-10-20T10:51:40.000Z,20.42
2017-10-20T10:52:20.632Z,20.51
2017-10-20T10:53:01.160Z,20.51
2017-10-20T10:53:41.755Z,20.57
2017-10-20T10:54:22.273Z,20.57
2017-10-20T10:55:02.897Z,20.69
2017-10-20T10:55:43.493Z,20.74
2017-10-20T10:56:24.070Z,20.82
2017-10-20T10:57:04.597Z,20.87
2017-10-20T10:57:45.198Z,20.89
2017-10-20T10:58:25.730Z,20.92
2017-10-20T10:59:06.302Z,20.97
2017-10-20T10:59:46.850Z,20.87
2017-10-20T11:00:27.392Z,20.91
2017-10-20T11:01:08.009Z,20.91
2017-10-20T11:01:48.554Z,21.03
2017-10-20T11:02:29.098Z,20.92
2017-10-20T11:03:09.755Z,20.84
2017-10-20T11:03:50.275Z,20.82
2017-10-20T11:04:30.860Z,20.87
2017-10-20T11:05:13.169Z,21.03
2017-10-20T11:05:53.699Z,20.89
2017-10-20T11:06:34.251Z,20.82
2017-10-20T11:07:14.809Z,20.88
2017-10-20T11:07:55.363Z,20.87
2017-10-20T11:08:35.961Z,20.97
2017-10-20T11:09:16.554Z,20.95
2017-10-20T11:09:57.057Z,20.97
2017-10-20T11:10:37.628Z,21.06
2017-10-20T11:11:18.198Z,21.03
2017-10-20T11:11:58.744Z,20.98
2017-10-20T11:12:39.242Z,20.97
2017-10-20T11:13:19.843Z,21.07
2017-10-20T11:14:00.352Z,21.1
2017-10-20T11:14:40.923Z,21.01
2017-10-20T11:15:21.450Z,21.1
2017-10-20T11:16:02.031Z,21.04
2017-10-20T11:16:42.552Z,21.06
2017-10-20T11:17:23.100Z,20.88
2017-10-20T11:18:03.708Z,20.85
2017-10-20T11:18:44.229Z,20.87
2017-10-20T11:19:27.823Z,20.94
2017-10-20T11:20:08.324Z,20.8
2017-10-20T11:20:48.915Z,20.72
2017-10-20T11:21:29.441Z,20.74
2017-10-20T11:22:10.047Z,20.79
2017-10-20T11:22:52.536Z,20.73
2017-10-20T11:23:33.097Z,20.7
2017-10-20T11:24:13.668Z,20.57
2017-10-20T11:24:54.220Z,20.66
2017-10-20T11:25:36.662Z,20.76
2017-10-20T11:26:17.266Z,20.66
2017-10-20T11:26:57.876Z,20.64
2017-10-20T11:27:38.424Z,20.64
2017-10-20T11:28:19.021Z,20.61
2017-10-20T11:28:59.629Z,20.61
2017-10-20T11:29:40.214Z,20.52
2017-10-20T11:30:20.807Z,20.57
2017-10-20T11:31:01.317Z,20.59
2017-10-20T11:31:41.946Z,20.57
2017-10-20T11:32:22.487Z,20.66
2017-10-20T11:33:03.107Z,20.73
2017-10-20T11:33:43.738Z,20.74
2017-10-20T11:34:26.129Z,20.73
2017-10-20T11:35:06.663Z,20.7
2017-10-20T11:35:47.301Z,20.58
2017-10-20T11:36:27.856Z,20.66
2017-10-20T11:37:08.460Z,20.58
2017-10-20T11:37:49.154Z,20.59
2017-10-20T11:38:29.845Z,20.55
2017-10-20T11:39:10.444Z,20.61
2017-10-20T11:39:51.069Z,20.66
2017-10-20T11:40:31.757Z,20.55
2017-10-20T11:41:12.344Z,20.58
2017-10-20T11:41:52.915Z,20.66
2017-10-20T11:42:33.515Z,20.72
2017-10-20T11:43:14.112Z,20.66
2017-10-20T11:43:54.681Z,20.76
2017-10-20T11:44:35.251Z,20.67